createdAt,value
2023-01-18T00:00:14.043Z,92264.00
2023-01-18T00:01:13.930Z,92262.00
2023-01-18T00:02:13.930Z,92264.00
2023-01-18T00:03:13.889Z,92266.00
2023-01-18T01:14:35.188Z,92284.00
2023-01-18T01:15:35.150Z,92282.00
2023-01-18T01:16:35.135Z,92282.00
2023-01-18T01:17:35.086Z,92282.00
2023-01-18T01:18:35.046Z,92282.00
2023-01-18T01:19:35.012Z,92285.00
2023-01-18T01:20:34.981Z,92284.00
2023-01-18T01:21:34.954Z,92287.00
2023-01-18T01:22:34.906Z,92287.00
2023-01-18T01:23:34.901Z,92287.00
2023-01-18T01:24:34.843Z,92287.00
2023-01-18T01:25:34.817Z,92289.00
2023-01-18T01:26:34.789Z,92291.00
2023-01-18T01:27:34.883Z,92289.00
2023-01-18T01:28:34.732Z,92295.00
2023-01-18T01:29:34.692Z,92297.00
2023-01-18T01:30:34.705Z,92291.00
2023-01-18T01:31:34.624Z,92293.00
2023-01-18T01:32:34.601Z,92293.00
2023-01-18T01:33:34.572Z,92295.00
2023-01-18T01:34:34.535Z,92295.00
2023-01-18T01:35:34.504Z,92297.00
2023-01-18T01:36:34.468Z,92297.00
2023-01-18T01:37:34.491Z,92297.00
2023-01-18T01:38:34.405Z,92299.00
2023-01-18T01:39:34.394Z,92297.00
2023-01-18T01:40:34.341Z,92303.00
2023-01-18T01:41:34.328Z,92307.00
2023-01-18T01:42:34.280Z,92311.00
2023-01-18T01:43:34.259Z,92309.00
2023-01-18T01:44:34.548Z,92311.00
2023-01-18T01:45:34.236Z,92311.00
2023-01-18T01:46:34.129Z,92311.00
2023-01-18T01:47:34.090Z,92311.00
2023-01-18T01:48:34.054Z,92313.00
2023-01-18T01:49:34.017Z,92315.00
2023-01-18T01:50:33.982Z,92317.00
2023-01-18T01:51:33.949Z,92315.00
2023-01-18T01:52:33.920Z,92319.00
2023-01-18T01:53:33.878Z,92319.00
2023-01-18T01:54:33.863Z,92317.00
2023-01-18T01:55:33.822Z,92315.00
2023-01-18T01:56:33.785Z,92315.00
2023-01-18T01:57:33.750Z,92315.00
2023-01-18T01:58:33.722Z,92319.00
2023-01-18T01:59:33.717Z,92321.00
2023-01-18T02:00:33.667Z,92321.00
2023-01-18T02:01:33.784Z,92317.00
2023-01-18T02:02:33.763Z,92319.00
2023-01-18T02:03:33.535Z,92321.00
2023-01-18T02:04:33.526Z,92319.00
2023-01-18T02:05:33.477Z,92321.00
2023-01-18T02:06:33.435Z,92323.00
2023-01-18T02:07:33.403Z,92323.00
2023-01-18T02:08:33.381Z,92325.00
2023-01-18T02:09:33.343Z,92321.00
2023-01-18T02:10:33.306Z,92321.00
2023-01-18T02:11:33.278Z,92321.00
2023-01-18T02:12:33.238Z,92321.00
2023-01-18T02:13:33.221Z,92321.00
2023-01-18T02:14:33.170Z,92323.00
2023-01-18T02:15:33.162Z,92325.00
2023-01-18T02:16:33.133Z,92323.00
2023-01-18T02:17:33.074Z,92325.00
2023-01-18T02:18:33.046Z,92327.00
2023-01-18T02:19:33.004Z,92325.00
2023-01-18T02:20:32.971Z,92323.00
2023-01-18T02:21:32.939Z,92325.00
2023-01-18T02:22:32.916Z,92325.00
2023-01-18T02:23:32.889Z,92323.00
2023-01-18T02:24:32.849Z,92321.00
2023-01-18T02:25:32.821Z,92323.00
2023-01-18T02:26:32.787Z,92327.00
2023-01-18T02:27:32.756Z,92323.00
2023-01-18T02:28:32.722Z,92325.00
2023-01-18T02:29:32.685Z,92325.00
2023-01-18T02:30:32.722Z,92329.00
2023-01-18T02:31:32.647Z,92329.00
2023-01-18T02:32:32.601Z,92331.00
2023-01-18T02:33:32.550Z,92331.00
2023-01-18T02:34:32.510Z,92331.00
2023-01-18T02:35:32.471Z,92331.00
2023-01-18T02:36:32.448Z,92331.00
2023-01-18T02:37:32.403Z,92331.00
2023-01-18T02:38:32.370Z,92334.00
2023-01-18T02:39:32.383Z,92332.00
2023-01-18T02:40:32.311Z,92332.00
2023-01-18T02:41:32.291Z,92332.00
2023-01-18T02:42:32.233Z,92331.00
2023-01-18T02:43:32.190Z,92329.00
2023-01-18T02:44:32.146Z,92332.00
2023-01-18T02:45:33.820Z,92332.00
2023-01-18T02:46:32.087Z,92332.00
2023-01-18T02:47:32.091Z,92334.00
2023-01-18T02:48:32.003Z,92332.00
2023-01-18T02:49:31.970Z,92334.00
2023-01-18T02:50:31.940Z,92334.00
2023-01-18T02:51:31.895Z,92336.00
2023-01-18T02:52:31.862Z,92334.00
2023-01-18T02:53:31.838Z,92336.00
2023-01-18T02:54:31.826Z,92334.00
2023-01-18T02:55:31.750Z,92336.00
2023-01-18T02:56:31.717Z,92336.00
2023-01-18T02:57:31.673Z,92334.00
2023-01-18T02:58:31.643Z,92334.00
2023-01-18T02:59:31.658Z,92332.00
2023-01-18T03:00:31.574Z,92334.00
2023-01-18T03:01:31.641Z,92336.00
2023-01-18T03:02:31.503Z,92336.00
2023-01-18T03:03:31.472Z,92336.00
2023-01-18T03:04:31.405Z,92340.00
2023-01-18T03:05:31.371Z,92338.00
2023-01-18T03:06:31.347Z,92338.00
2023-01-18T03:07:31.336Z,92340.00
2023-01-18T03:08:31.259Z,92338.00
2023-01-18T03:09:31.244Z,92340.00
2023-01-18T03:10:31.188Z,92342.00
2023-01-18T03:11:31.146Z,92342.00
2023-01-18T03:12:31.117Z,92344.00
2023-01-18T03:13:31.077Z,92346.00
2023-01-18T03:14:31.050Z,92346.00
2023-01-18T03:15:31.036Z,92356.00
2023-01-18T03:16:30.972Z,92358.00
2023-01-18T03:17:30.958Z,92360.00
2023-01-18T03:18:30.901Z,92360.00
2023-01-18T03:19:30.885Z,92360.00
2023-01-18T03:20:30.831Z,92364.00
2023-01-18T03:21:30.788Z,92366.00
2023-01-18T03:22:30.754Z,92368.00
2023-01-18T03:23:30.718Z,92371.00
2023-01-18T03:24:30.695Z,92375.00
2023-01-18T03:25:30.640Z,92373.00
2023-01-18T03:26:30.641Z,92373.00
2023-01-18T03:27:30.560Z,92373.00
2023-01-18T03:28:30.538Z,92371.00
2023-01-18T03:29:30.492Z,92371.00
2023-01-18T03:30:30.458Z,92373.00
2023-01-18T03:31:30.424Z,92375.00
2023-01-18T03:32:30.443Z,92373.00
2023-01-18T03:33:30.388Z,92375.00
2023-01-18T03:34:30.336Z,92377.00
2023-01-18T03:35:30.310Z,92381.00
2023-01-18T03:36:30.256Z,92385.00
2023-01-18T03:37:30.223Z,92381.00
2023-01-18T03:38:30.237Z,92383.00
2023-01-18T03:39:30.144Z,92387.00
2023-01-18T03:40:30.118Z,92387.00
2023-01-18T03:41:30.077Z,92389.00
2023-01-18T03:42:30.049Z,92387.00
2023-01-18T03:43:30.005Z,92387.00
2023-01-18T03:44:29.967Z,92387.00
2023-01-18T03:45:29.928Z,92387.00
2023-01-18T03:46:29.947Z,92389.00
2023-01-18T03:47:29.851Z,92389.00
2023-01-18T03:48:29.818Z,92387.00
2023-01-18T03:49:29.777Z,92387.00
2023-01-18T03:50:29.739Z,92389.00
2023-01-18T03:51:29.739Z,92385.00
2023-01-18T03:52:29.668Z,92383.00
2023-01-18T03:53:29.637Z,92387.00
2023-01-18T03:54:29.605Z,92389.00
2023-01-18T03:55:29.567Z,92385.00
2023-01-18T03:56:29.560Z,92387.00
2023-01-18T03:57:29.495Z,92387.00
2023-01-18T03:58:29.457Z,92389.00
2023-01-18T03:59:29.417Z,92395.00
2023-01-18T04:00:29.385Z,92393.00
2023-01-18T04:01:29.434Z,92395.00
2023-01-18T04:02:29.336Z,92395.00
2023-01-18T04:03:29.264Z,92399.00
2023-01-18T04:04:29.235Z,92397.00
2023-01-18T04:05:29.200Z,92397.00
2023-01-18T04:06:29.711Z,92399.00
2023-01-18T04:07:29.160Z,92399.00
2023-01-18T04:08:29.089Z,92399.00
2023-01-18T04:09:29.068Z,92397.00
2023-01-18T04:10:29.051Z,92397.00
2023-01-18T04:11:29.015Z,92397.00
2023-01-18T04:12:28.955Z,92395.00
2023-01-18T04:13:28.911Z,92399.00
2023-01-18T04:14:28.893Z,92397.00
2023-01-18T04:15:28.840Z,92395.00
2023-01-18T04:16:28.801Z,92399.00
2023-01-18T04:17:28.763Z,92397.00
2023-01-18T04:18:28.749Z,92395.00
2023-01-18T04:19:28.686Z,92397.00
2023-01-18T04:20:28.650Z,92397.00
2023-01-18T04:21:28.612Z,92395.00
2023-01-18T04:22:28.574Z,92397.00
2023-01-18T04:23:28.558Z,92397.00
2023-01-18T04:24:28.514Z,92397.00
2023-01-18T04:25:28.453Z,92399.00
2023-01-18T04:26:28.419Z,92397.00
2023-01-18T04:27:28.390Z,92399.00
2023-01-18T04:28:28.355Z,92399.00
2023-01-18T04:29:28.319Z,92395.00
2023-01-18T04:30:28.280Z,92401.00
2023-01-18T04:31:28.337Z,92401.00
2023-01-18T04:32:28.217Z,92401.00
2023-01-18T04:33:28.185Z,92401.00
2023-01-18T04:34:28.136Z,92401.00
2023-01-18T04:35:28.104Z,92401.00
2023-01-18T04:36:28.073Z,92403.00
2023-01-18T04:37:28.029Z,92403.00
2023-01-18T04:38:27.988Z,92403.00
2023-01-18T04:39:27.981Z,92403.00
2023-01-18T04:40:27.930Z,92401.00
2023-01-18T04:41:27.895Z,92401.00
2023-01-18T04:42:27.854Z,92403.00
2023-01-18T04:43:27.817Z,92405.00
2023-01-18T04:44:27.773Z,92403.00
2023-01-18T04:45:27.745Z,92403.00
2023-01-18T04:46:27.744Z,92407.00
2023-01-18T04:47:27.672Z,92407.00
2023-01-18T04:48:27.630Z,92409.00
2023-01-18T04:49:27.600Z,92407.00
2023-01-18T04:50:27.569Z,92409.00
2023-01-18T04:51:27.536Z,92409.00
2023-01-18T04:52:27.502Z,92411.00
2023-01-18T04:53:27.467Z,92411.00
2023-01-18T04:54:27.437Z,92409.00
2023-01-18T04:55:27.507Z,92411.00
2023-01-18T04:56:27.376Z,92411.00
2023-01-18T04:57:27.343Z,92411.00
2023-01-18T04:58:27.314Z,92413.00
2023-01-18T04:59:27.272Z,92416.00
2023-01-18T05:00:27.347Z,92418.00
2023-01-18T05:01:27.377Z,92420.00
2023-01-18T05:02:27.258Z,92420.00
2023-01-18T05:03:27.135Z,92418.00
2023-01-18T05:04:27.106Z,92422.00
2023-01-18T05:05:27.077Z,92422.00
2023-01-18T05:06:27.039Z,92420.00
2023-01-18T05:07:27.014Z,92422.00
2023-01-18T05:08:26.954Z,92424.00
2023-01-18T05:09:26.923Z,92426.00
2023-01-18T05:10:26.893Z,92426.00
2023-01-18T05:11:26.875Z,92428.00
2023-01-18T05:12:26.812Z,92426.00
2023-01-18T05:13:26.780Z,92428.00
2023-01-18T05:14:26.746Z,92430.00
2023-01-18T05:15:26.700Z,92428.00
2023-01-18T05:16:26.687Z,92430.00
2023-01-18T05:17:26.629Z,92432.00
2023-01-18T05:18:26.596Z,92430.00
2023-01-18T05:19:26.548Z,92432.00
2023-01-18T05:20:26.521Z,92432.00
2023-01-18T05:21:26.464Z,92436.00
2023-01-18T05:22:26.432Z,92436.00
2023-01-18T05:23:26.394Z,92436.00
2023-01-18T05:24:28.854Z,92436.00
2023-01-18T05:25:26.332Z,92442.00
2023-01-18T05:26:26.288Z,92440.00
2023-01-18T05:27:26.276Z,92442.00
2023-01-18T05:28:26.222Z,92442.00
2023-01-18T05:29:26.184Z,92440.00
2023-01-18T05:30:26.151Z,92444.00
2023-01-18T05:31:26.141Z,92446.00
2023-01-18T05:32:26.089Z,92446.00
2023-01-18T05:33:26.055Z,92448.00
2023-01-18T05:34:26.018Z,92452.00
2023-01-18T05:35:25.995Z,92450.00
2023-01-18T05:36:25.964Z,92454.00
2023-01-18T05:37:25.945Z,92452.00
2023-01-18T05:38:25.911Z,92452.00
2023-01-18T05:39:25.892Z,92452.00
2023-01-18T05:40:25.857Z,92454.00
2023-01-18T05:41:25.825Z,92454.00
2023-01-18T05:42:25.796Z,92456.00
2023-01-18T05:43:25.795Z,92454.00
2023-01-18T05:44:25.735Z,92454.00
2023-01-18T05:45:25.794Z,92456.00
2023-01-18T05:46:25.685Z,92456.00
2023-01-18T05:47:25.642Z,92458.00
2023-01-18T05:48:25.603Z,92462.00
2023-01-18T05:49:25.580Z,92460.00
2023-01-18T05:50:25.533Z,92462.00
2023-01-18T05:51:25.511Z,92462.00
2023-01-18T05:52:25.482Z,92463.00
2023-01-18T05:53:25.454Z,92465.00
2023-01-18T05:54:25.418Z,92467.00
2023-01-18T05:55:25.395Z,92471.00
2023-01-18T05:56:25.353Z,92469.00
2023-01-18T05:57:25.325Z,92471.00
2023-01-18T05:58:25.309Z,92469.00
2023-01-18T05:59:25.295Z,92469.00
2023-01-18T06:00:25.240Z,92471.00
2023-01-18T06:01:25.295Z,92473.00
2023-01-18T06:02:25.179Z,92471.00
2023-01-18T06:03:25.174Z,92475.00
2023-01-18T06:04:25.151Z,92471.00
2023-01-18T06:05:25.096Z,92473.00
2023-01-18T06:06:25.062Z,92471.00
2023-01-18T06:07:25.023Z,92473.00
2023-01-18T06:08:24.977Z,92475.00
2023-01-18T06:09:24.950Z,92475.00
2023-01-18T06:10:24.912Z,92479.00
2023-01-18T06:11:24.882Z,92479.00
2023-01-18T06:12:24.836Z,92481.00
2023-01-18T06:13:24.804Z,92481.00
2023-01-18T06:14:25.192Z,92483.00
2023-01-18T06:15:24.757Z,92485.00
2023-01-18T06:16:24.810Z,92487.00
2023-01-18T06:17:24.664Z,92489.00
2023-01-18T06:18:24.635Z,92491.00
2023-01-18T06:19:24.603Z,92495.00
2023-01-18T06:20:24.565Z,92493.00
2023-01-18T06:21:24.531Z,92497.00
2023-01-18T06:22:25.266Z,92499.00
2023-01-18T06:23:24.497Z,92503.00
2023-01-18T06:24:24.691Z,92503.00
2023-01-18T06:25:24.393Z,92505.00
2023-01-18T06:26:24.356Z,92503.00
2023-01-18T06:27:24.320Z,92507.00
2023-01-18T06:28:24.300Z,92510.00
2023-01-18T06:29:27.440Z,92512.00
2023-01-18T06:30:24.688Z,92518.00
2023-01-18T06:31:24.256Z,92518.00
2023-01-18T06:32:24.136Z,92522.00
2023-01-18T06:33:24.100Z,92528.00
2023-01-18T06:34:24.064Z,92526.00
2023-01-18T06:35:24.220Z,92530.00
2023-01-18T06:36:24.027Z,92530.00
2023-01-18T06:37:23.967Z,92534.00
2023-01-18T06:38:23.930Z,92532.00
2023-01-18T06:39:24.205Z,92532.00
2023-01-18T06:40:23.858Z,92534.00
2023-01-18T06:41:23.838Z,92538.00
2023-01-18T06:42:23.811Z,92538.00
2023-01-18T06:43:24.193Z,92542.00
2023-01-18T06:44:23.756Z,92542.00
2023-01-18T06:45:23.726Z,92548.00
2023-01-18T06:46:23.696Z,92546.00
2023-01-18T06:47:23.711Z,92546.00
2023-01-18T06:48:23.678Z,92548.00
2023-01-18T06:49:23.643Z,92550.00
2023-01-18T06:50:23.604Z,92548.00
2023-01-18T06:51:23.596Z,92550.00
2023-01-18T06:52:23.599Z,92552.00
2023-01-18T06:53:23.720Z,92548.00
2023-01-18T06:54:23.695Z,92550.00
2023-01-18T06:55:23.465Z,92552.00
2023-01-18T06:56:23.446Z,92552.00
2023-01-18T06:57:23.694Z,92546.00
2023-01-18T06:58:23.388Z,92550.00
2023-01-18T06:59:26.556Z,92550.00
2023-01-18T07:00:23.332Z,92554.00
2023-01-18T07:01:23.397Z,92557.00
2023-01-18T07:02:23.768Z,92557.00
2023-01-18T07:03:23.235Z,92561.00
2023-01-18T07:04:23.255Z,92559.00
2023-01-18T07:05:26.381Z,92559.00
2023-01-18T07:06:23.193Z,92561.00
2023-01-18T07:07:23.212Z,92567.00
2023-01-18T07:08:23.261Z,92565.00
2023-01-18T07:09:23.008Z,92569.00
2023-01-18T07:10:22.982Z,92571.00
2023-01-18T07:11:22.950Z,92575.00
2023-01-18T07:12:22.915Z,92575.00
2023-01-18T07:13:23.204Z,92575.00
2023-01-18T07:14:22.844Z,92581.00
2023-01-18T07:15:23.198Z,92581.00
2023-01-18T07:16:22.799Z,92585.00
2023-01-18T07:17:22.727Z,92587.00
2023-01-18T07:18:22.701Z,92585.00
2023-01-18T07:19:22.674Z,92587.00
2023-01-18T07:20:22.600Z,92587.00
2023-01-18T07:21:22.559Z,92587.00
2023-01-18T07:22:22.519Z,92587.00
2023-01-18T07:23:22.825Z,92593.00
2023-01-18T07:24:22.914Z,92591.00
2023-01-18T07:25:22.392Z,92597.00
2023-01-18T07:26:23.016Z,92595.00
2023-01-18T07:27:22.324Z,92595.00
2023-01-18T07:28:22.711Z,92599.00
2023-01-18T07:29:22.441Z,92601.00
2023-01-18T07:30:22.213Z,92603.00
2023-01-18T07:31:22.159Z,92603.00
2023-01-18T07:32:22.190Z,92610.00
2023-01-18T07:33:22.998Z,92610.00
2023-01-18T07:34:22.123Z,92616.00
2023-01-18T07:35:22.332Z,92612.00
2023-01-18T07:36:21.942Z,92616.00
2023-01-18T07:37:21.917Z,92614.00
2023-01-18T07:38:22.261Z,92618.00
2023-01-18T07:39:21.820Z,92618.00
2023-01-18T07:40:21.920Z,92626.00
2023-01-18T07:41:21.739Z,92628.00
2023-01-18T07:42:21.714Z,92628.00
2023-01-18T07:43:21.659Z,92630.00
2023-01-18T07:44:22.059Z,92632.00
2023-01-18T07:45:21.797Z,92634.00
2023-01-18T07:46:21.584Z,92638.00
2023-01-18T07:47:21.481Z,92636.00
2023-01-18T07:48:21.439Z,92638.00
2023-01-18T08:04:30.817Z,92651.00
2023-01-18T08:06:30.807Z,92657.00
2023-01-18T08:10:30.883Z,92653.00
2023-01-18T08:14:30.822Z,92657.00
2023-01-18T08:18:33.988Z,92665.00
2023-01-18T08:21:30.833Z,92671.00
2023-01-18T08:22:30.688Z,92669.00
2023-01-18T08:24:30.649Z,92665.00
2023-01-18T08:33:33.793Z,92671.00
2023-01-18T08:45:30.470Z,92687.00
2023-01-18T09:01:30.735Z,92712.00
2023-01-18T09:03:30.342Z,92720.00
2023-01-18T09:08:30.341Z,92726.00
2023-01-18T09:12:30.425Z,92734.00
2023-01-18T09:14:30.343Z,92736.00
2023-01-18T09:16:30.564Z,92740.00
2023-01-18T09:19:30.355Z,92742.00
2023-01-18T10:02:29.871Z,92796.00
2023-01-18T10:04:29.960Z,92798.00
2023-01-18T10:12:29.853Z,92802.00
2023-01-18T10:18:29.653Z,92806.00
2023-01-18T10:38:29.441Z,92790.00
2023-01-18T10:55:29.349Z,92796.00
2023-01-18T10:58:29.350Z,92800.00
2023-01-18T11:08:29.362Z,92818.00
2023-01-18T11:50:28.869Z,92845.00
2023-01-18T11:52:28.867Z,92847.00
2023-01-18T11:55:28.869Z,92851.00
2023-01-18T12:00:28.867Z,92853.00
2023-01-18T12:13:28.882Z,92873.00
2023-01-18T12:43:29.133Z,92904.00
2023-01-18T12:45:28.397Z,92908.00
2023-01-18T12:53:28.388Z,92914.00
2023-01-18T12:56:28.397Z,92916.00
2023-01-18T13:33:27.906Z,92961.00
2023-01-18T13:43:27.944Z,92978.00
2023-01-18T13:46:27.979Z,92984.00
2023-01-18T13:56:27.923Z,92996.00
2023-01-18T14:42:27.429Z,93084.00
2023-01-18T14:47:27.455Z,93088.00
2023-01-18T14:51:27.428Z,93094.00
2023-01-18T15:40:26.941Z,93146.00
2023-01-18T16:38:26.186Z,93241.00
2023-01-18T16:39:26.501Z,93243.00
2023-01-18T20:44:24.014Z,93626.00
2023-01-18T20:45:24.014Z,93628.00
2023-01-18T20:46:24.001Z,93642.00
2023-01-18T20:47:23.985Z,93640.00
2023-01-18T20:48:23.983Z,93642.00
2023-01-18T20:49:33.140Z,93648.00
2023-01-18T20:50:23.967Z,93648.00
2023-01-18T20:51:23.951Z,93648.00
2023-01-18T20:52:23.966Z,93652.00
2023-01-18T20:53:23.936Z,93656.00
2023-01-18T20:54:23.938Z,93656.00
2023-01-18T20:55:23.943Z,93658.00
2023-01-18T21:45:23.485Z,93710.00
2023-01-18T23:39:22.481Z,93838.00
2023-01-18T23:40:22.460Z,93836.00
2023-01-18T23:41:22.451Z,93840.00
2023-01-18T23:42:22.517Z,93840.00
2023-01-18T23:46:22.437Z,93846.00
2023-01-18T23:47:22.397Z,93847.00
2023-01-18T23:48:22.389Z,93849.00
2023-01-18T23:49:22.384Z,93849.00
2023-01-18T23:50:22.367Z,93851.00
2023-01-18T23:53:22.341Z,93857.00
2023-01-18T23:54:22.331Z,93857.00
2023-01-18T23:55:22.320Z,93859.00
2023-01-18T23:56:22.316Z,93859.00
2023-01-18T23:58:22.296Z,93859.00
2023-01-18T23:59:22.291Z,93861.00
